createdAt,value
2023-03-18T00:00:33.991Z,120.40
2023-03-18T00:01:33.772Z,117.66
2023-03-18T00:02:33.874Z,117.03
2023-03-18T00:03:33.949Z,115.25
2023-03-18T00:04:33.931Z,112.39
2023-03-18T00:05:33.997Z,114.57
2023-03-18T00:06:34.053Z,114.96
2023-03-18T00:07:34.077Z,112.92
2023-03-18T00:08:34.130Z,112.84
2023-03-18T00:09:34.189Z,111.71
2023-03-18T00:10:34.325Z,112.59
2023-03-18T00:11:34.303Z,114.54
2023-03-18T00:12:34.343Z,113.08
2023-03-18T00:13:34.393Z,112.43
2023-03-18T00:14:34.442Z,107.63
2023-03-18T00:15:34.488Z,105.30
2023-03-18T00:16:34.533Z,104.40
2023-03-18T00:17:34.655Z,104.12
2023-03-18T00:18:34.637Z,103.64
2023-03-18T00:19:34.695Z,103.89
2023-03-18T00:20:34.766Z,104.32
2023-03-18T00:21:34.833Z,105.53
2023-03-18T00:22:34.850Z,106.91
2023-03-18T00:23:34.893Z,105.95
2023-03-18T00:24:35.081Z,104.86
2023-03-18T00:25:35.012Z,103.76
2023-03-18T00:26:35.058Z,101.14
2023-03-18T00:27:35.140Z,102.12
2023-03-18T00:28:35.149Z,102.83
2023-03-18T00:29:35.237Z,102.17
2023-03-18T00:30:35.290Z,100.74
2023-03-18T00:31:35.372Z,102.97
2023-03-18T00:32:35.468Z,100.66
2023-03-18T00:33:35.456Z,98.79
2023-03-18T00:34:35.488Z,102.38
2023-03-18T00:35:36.180Z,101.36
2023-03-18T00:37:35.783Z,100.56
2023-03-18T00:38:35.675Z,98.36
2023-03-18T00:39:35.730Z,99.88
2023-03-18T00:40:35.767Z,97.63
2023-03-18T00:41:35.839Z,96.46
2023-03-18T00:42:35.852Z,95.06
2023-03-18T00:43:36.049Z,92.37
2023-03-18T00:44:35.959Z,92.21
2023-03-18T00:45:36.032Z,91.86
2023-03-18T00:46:36.244Z,92.67
2023-03-18T00:47:36.147Z,93.88
2023-03-18T00:48:36.155Z,92.77
2023-03-18T00:49:36.229Z,91.22
2023-03-18T00:50:36.245Z,90.51
2023-03-18T00:51:36.317Z,92.27
2023-03-18T00:52:36.368Z,89.87
2023-03-18T00:53:36.412Z,89.00
2023-03-18T00:55:36.521Z,86.34
2023-03-18T00:56:36.566Z,86.61
2023-03-18T00:57:36.637Z,88.27
2023-03-18T00:58:36.679Z,88.00
2023-03-18T00:59:36.722Z,86.35
2023-03-18T01:00:36.867Z,87.03
2023-03-18T01:01:36.844Z,88.73
2023-03-18T01:02:36.884Z,89.46
2023-03-18T01:04:36.992Z,89.41
2023-03-18T01:05:37.030Z,87.41
2023-03-18T01:06:37.077Z,87.49
2023-03-18T01:07:37.153Z,86.10
2023-03-18T01:08:37.169Z,85.29
2023-03-18T01:09:37.241Z,83.27
2023-03-18T01:10:37.264Z,83.39
2023-03-18T01:11:37.335Z,81.87
2023-03-18T01:12:39.454Z,82.19
2023-03-18T01:13:37.422Z,81.77
2023-03-18T01:14:37.464Z,81.94
2023-03-18T01:15:37.556Z,79.58
2023-03-18T01:16:37.655Z,78.94
2023-03-18T01:17:37.652Z,79.94
2023-03-18T01:18:37.753Z,79.50
2023-03-18T01:19:37.740Z,76.31
2023-03-18T01:20:37.816Z,77.05
2023-03-18T01:21:37.828Z,75.97
2023-03-18T01:22:37.889Z,76.16
2023-03-18T01:23:37.964Z,76.91
2023-03-18T01:24:38.660Z,78.60
2023-03-18T01:25:38.126Z,78.91
2023-03-18T01:26:38.098Z,79.27
2023-03-18T01:27:38.135Z,76.49
2023-03-18T01:28:38.188Z,74.09
2023-03-18T01:29:38.241Z,73.72
2023-03-18T01:30:38.338Z,72.82
2023-03-18T01:31:38.399Z,73.64
2023-03-18T01:32:38.400Z,74.39
2023-03-18T01:33:38.458Z,73.88
2023-03-18T01:34:38.479Z,76.53
2023-03-18T01:35:38.590Z,75.67
2023-03-18T01:36:38.592Z,75.41
2023-03-18T01:37:38.669Z,74.13
2023-03-18T01:38:38.663Z,74.80
2023-03-18T01:39:38.745Z,72.66
2023-03-18T01:40:38.794Z,73.38
2023-03-18T01:41:38.835Z,73.12
2023-03-18T01:42:38.878Z,71.47
2023-03-18T01:43:38.938Z,70.04
2023-03-18T01:44:39.068Z,71.33
2023-03-18T01:45:39.026Z,70.24
2023-03-18T01:46:39.077Z,68.93
2023-03-18T01:47:39.151Z,69.60
2023-03-18T01:48:39.181Z,69.62
2023-03-18T01:49:39.218Z,69.57
2023-03-18T01:50:39.294Z,68.92
2023-03-18T01:51:39.348Z,68.05
2023-03-18T01:52:39.424Z,69.24
2023-03-18T01:53:39.417Z,69.25
2023-03-18T01:54:39.482Z,70.28
2023-03-18T01:55:39.534Z,69.26
2023-03-18T01:56:39.576Z,69.58
2023-03-18T01:57:39.611Z,67.85
2023-03-18T01:58:39.658Z,67.06
2023-03-18T01:59:39.714Z,65.63
2023-03-18T02:00:39.748Z,65.80
2023-03-18T02:01:39.817Z,66.22
2023-03-18T02:02:39.859Z,65.21
2023-03-18T02:03:39.923Z,65.89
2023-03-18T02:04:40.135Z,66.40
2023-03-18T02:05:40.029Z,67.17
2023-03-18T02:06:40.065Z,66.40
2023-03-18T02:07:40.132Z,65.99
2023-03-18T02:08:40.175Z,65.81
2023-03-18T02:09:40.219Z,64.32
2023-03-18T02:10:40.266Z,63.67
2023-03-18T02:11:40.329Z,63.05
2023-03-18T02:12:40.365Z,63.21
2023-03-18T02:13:40.413Z,62.63
2023-03-18T02:14:41.211Z,64.18
2023-03-18T02:15:40.514Z,63.92
2023-03-18T02:16:40.642Z,62.90
2023-03-18T02:17:40.642Z,63.18
2023-03-18T02:18:40.656Z,63.47
2023-03-18T02:19:40.687Z,62.57
2023-03-18T02:20:40.789Z,62.25
2023-03-18T02:21:40.835Z,61.32
2023-03-18T02:22:40.893Z,61.46
2023-03-18T02:23:40.898Z,62.02
2023-03-18T02:24:40.927Z,61.67
2023-03-18T02:25:40.996Z,61.88
2023-03-18T02:26:41.030Z,61.07
2023-03-18T02:27:41.084Z,61.51
2023-03-18T02:28:41.143Z,60.03
2023-03-18T02:29:41.183Z,59.98
2023-03-18T02:30:41.245Z,59.75
2023-03-18T02:31:41.271Z,59.32
2023-03-18T02:32:41.366Z,57.80
2023-03-18T02:33:41.359Z,59.11
2023-03-18T02:34:41.384Z,58.40
2023-03-18T02:35:41.492Z,57.66
2023-03-18T02:36:41.480Z,57.21
2023-03-18T02:37:41.592Z,57.18
2023-03-18T02:38:41.576Z,56.70
2023-03-18T02:39:41.608Z,57.55
2023-03-18T02:40:41.683Z,58.32
2023-03-18T02:41:41.721Z,57.88
2023-03-18T02:42:41.769Z,58.24
2023-03-18T02:43:41.801Z,58.81
2023-03-18T02:44:41.844Z,58.34
2023-03-18T02:45:41.889Z,57.62
2023-03-18T02:46:41.928Z,58.05
2023-03-18T02:47:42.000Z,57.08
2023-03-18T02:48:42.044Z,56.82
2023-03-18T02:49:42.101Z,56.14
2023-03-18T02:50:42.523Z,55.19
2023-03-18T02:51:42.292Z,54.79
2023-03-18T02:52:42.222Z,55.32
2023-03-18T02:53:42.266Z,54.76
2023-03-18T02:54:42.318Z,54.31
2023-03-18T02:55:42.391Z,54.91
2023-03-18T02:56:42.436Z,53.51
2023-03-18T02:57:42.454Z,54.75
2023-03-18T02:58:42.472Z,54.98
2023-03-18T02:59:42.565Z,54.67
2023-03-18T03:02:42.935Z,52.48
2023-03-18T03:03:42.771Z,52.34
2023-03-18T03:04:42.772Z,51.36
2023-03-18T03:05:42.823Z,52.04
2023-03-18T03:06:42.898Z,51.86
2023-03-18T03:07:42.945Z,51.00
2023-03-18T03:08:42.963Z,50.90
2023-03-18T03:09:43.012Z,50.39
2023-03-18T03:10:43.081Z,50.38
2023-03-18T03:11:43.151Z,50.10
2023-03-18T03:12:43.590Z,50.12
2023-03-18T03:13:43.194Z,50.47
2023-03-18T03:14:43.230Z,50.87
2023-03-18T03:15:43.351Z,50.28
2023-03-18T03:16:43.336Z,50.90
2023-03-18T03:17:43.405Z,49.85
2023-03-18T03:18:43.438Z,50.83
2023-03-18T03:19:43.492Z,49.16
2023-03-18T03:20:43.530Z,49.98
2023-03-18T03:21:43.607Z,49.48
2023-03-18T03:22:43.639Z,49.20
2023-03-18T03:23:43.714Z,48.52
2023-03-18T03:24:43.741Z,49.28
2023-03-18T03:25:43.780Z,48.33
2023-03-18T03:26:43.832Z,47.54
2023-03-18T03:28:43.925Z,47.64
2023-03-18T03:29:44.014Z,47.35
2023-03-18T03:30:44.060Z,47.40
2023-03-18T03:31:44.040Z,47.14
2023-03-18T03:32:44.155Z,47.15
2023-03-18T03:33:44.158Z,46.93
2023-03-18T03:34:44.218Z,46.14
2023-03-18T03:35:44.236Z,45.63
2023-03-18T03:36:45.232Z,45.74
2023-03-18T03:37:44.348Z,45.71
2023-03-18T03:38:44.393Z,45.13
2023-03-18T03:39:44.427Z,45.14
2023-03-18T03:40:44.483Z,44.71
2023-03-18T03:41:44.532Z,45.23
2023-03-18T03:42:44.552Z,44.72
2023-03-18T03:43:44.587Z,44.76
2023-03-18T03:44:44.644Z,45.10
2023-03-18T03:45:44.674Z,44.20
2023-03-18T03:46:44.731Z,44.75
2023-03-18T03:47:44.769Z,43.85
2023-03-18T03:48:44.795Z,43.31
2023-03-18T03:49:44.878Z,43.28
2023-03-18T03:50:44.928Z,44.32
2023-03-18T03:51:44.964Z,43.91
2023-03-18T03:52:45.004Z,43.61
2023-03-18T03:53:45.040Z,43.22
2023-03-18T03:54:45.081Z,43.40
2023-03-18T03:55:45.133Z,43.15
2023-03-18T03:56:45.203Z,42.60
2023-03-18T03:57:45.269Z,43.28
2023-03-18T03:58:45.270Z,43.53
2023-03-18T03:59:45.339Z,42.46
2023-03-18T04:00:46.226Z,42.52
2023-03-18T04:01:45.418Z,42.15
2023-03-18T04:02:45.521Z,41.69
2023-03-18T04:03:45.598Z,40.82
2023-03-18T04:04:45.594Z,40.89
2023-03-18T04:05:45.583Z,40.90
2023-03-18T04:06:45.629Z,39.83
2023-03-18T04:07:45.668Z,40.67
2023-03-18T04:08:45.698Z,40.52
2023-03-18T04:09:45.765Z,39.46
2023-03-18T04:10:45.825Z,40.07
2023-03-18T04:11:45.868Z,39.68
2023-03-18T04:12:45.925Z,40.20
2023-03-18T04:13:45.929Z,39.58
2023-03-18T04:14:45.992Z,39.33
2023-03-18T04:15:46.092Z,39.80
2023-03-18T04:16:46.071Z,39.62
2023-03-18T04:17:46.117Z,39.44
2023-03-18T04:18:46.189Z,38.85
2023-03-18T04:19:46.236Z,39.20
2023-03-18T04:20:46.312Z,39.26
2023-03-18T04:21:46.321Z,38.55
2023-03-18T04:22:46.382Z,38.33
2023-03-18T04:23:46.430Z,38.79
2023-03-18T04:24:46.479Z,38.61
2023-03-18T04:25:46.502Z,38.06
2023-03-18T04:26:46.569Z,38.38
2023-03-18T04:27:46.629Z,38.31
2023-03-18T04:28:46.725Z,38.21
2023-03-18T04:29:46.722Z,38.23
2023-03-18T04:30:46.760Z,38.08
2023-03-18T04:31:46.892Z,37.37
2023-03-18T04:32:46.875Z,37.21
2023-03-18T04:33:46.864Z,36.96
2023-03-18T04:34:46.904Z,36.96
2023-03-18T04:35:46.997Z,36.58
2023-03-18T04:36:46.987Z,36.55
2023-03-18T04:37:47.026Z,36.30
2023-03-18T04:38:47.123Z,35.91
2023-03-18T04:39:47.162Z,36.71
2023-03-18T04:40:47.178Z,36.61
2023-03-18T04:41:47.276Z,36.56
2023-03-18T04:42:47.306Z,36.50
2023-03-18T04:43:47.341Z,36.19
2023-03-18T04:44:47.387Z,36.34
2023-03-18T04:45:47.430Z,35.73
2023-03-18T04:46:47.506Z,35.54
2023-03-18T04:47:47.539Z,35.40
2023-03-18T04:48:47.572Z,35.17
2023-03-18T04:49:47.607Z,35.02
2023-03-18T04:50:47.653Z,34.89
2023-03-18T04:51:47.722Z,35.00
2023-03-18T04:52:47.758Z,35.12
2023-03-18T04:53:47.774Z,35.03
2023-03-18T04:54:47.833Z,34.72
2023-03-18T04:55:47.897Z,34.86
2023-03-18T04:56:48.047Z,34.77
2023-03-18T04:57:47.956Z,34.31
2023-03-18T04:58:48.025Z,34.43
2023-03-18T04:59:48.067Z,34.02
2023-03-18T05:00:48.141Z,34.07
2023-03-18T05:01:48.161Z,34.11
2023-03-18T05:02:48.204Z,33.95
2023-03-18T05:03:48.285Z,34.12
2023-03-18T05:04:48.289Z,34.18
2023-03-18T05:05:48.327Z,33.86
2023-03-18T05:06:48.383Z,33.32
2023-03-18T05:07:48.490Z,33.39
2023-03-18T05:08:48.526Z,33.39
2023-03-18T05:09:48.480Z,33.09
2023-03-18T05:10:48.542Z,32.96
2023-03-18T05:11:48.585Z,33.01
2023-03-18T05:12:48.666Z,32.75
2023-03-18T05:13:48.707Z,32.45
2023-03-18T05:14:48.730Z,32.67
2023-03-18T05:15:48.769Z,32.20
2023-03-18T05:16:48.866Z,32.23
2023-03-18T05:17:48.879Z,32.08
2023-03-18T05:18:48.922Z,32.02
2023-03-18T05:19:48.958Z,31.62
2023-03-18T05:20:49.019Z,31.63
2023-03-18T05:21:49.091Z,31.47
2023-03-18T05:22:49.127Z,31.40
2023-03-18T05:23:49.172Z,30.94
2023-03-18T05:24:49.222Z,30.79
2023-03-18T05:25:49.236Z,30.35
2023-03-18T05:26:49.342Z,30.82
2023-03-18T05:27:49.341Z,30.54
2023-03-18T05:28:49.407Z,30.12
2023-03-18T05:29:49.446Z,30.29
2023-03-18T05:30:49.459Z,30.42
2023-03-18T05:31:49.578Z,29.62
2023-03-18T05:32:49.575Z,29.58
2023-03-18T05:33:49.625Z,29.64
2023-03-18T05:34:49.636Z,29.65
2023-03-18T05:35:49.703Z,29.37
2023-03-18T05:36:49.743Z,29.64
2023-03-18T05:37:49.781Z,28.97
2023-03-18T05:38:49.818Z,29.25
2023-03-18T05:39:49.880Z,29.34
2023-03-18T05:40:49.950Z,29.65
2023-03-18T05:41:49.958Z,28.78
2023-03-18T05:42:56.176Z,28.91
2023-03-18T05:43:51.006Z,28.93
2023-03-18T05:44:50.113Z,28.95
2023-03-18T05:45:50.003Z,28.93
2023-03-18T05:46:49.977Z,29.21
2023-03-18T05:47:50.000Z,28.97
2023-03-18T05:48:49.970Z,29.08
2023-03-18T05:49:49.956Z,28.77
2023-03-18T05:50:49.927Z,28.35
2023-03-18T05:51:49.949Z,28.14
2023-03-18T05:52:49.919Z,28.45
2023-03-18T05:53:49.930Z,28.14
2023-03-18T05:54:49.901Z,27.97
2023-03-18T05:55:49.965Z,28.12
2023-03-18T05:56:49.990Z,27.94
2023-03-18T05:57:50.031Z,27.42
2023-03-18T05:58:50.106Z,27.71
2023-03-18T05:59:50.115Z,27.38
2023-03-18T06:00:50.172Z,27.33
2023-03-18T06:01:50.213Z,27.42
2023-03-18T06:02:50.261Z,27.19
2023-03-18T06:03:50.362Z,27.03
2023-03-18T06:04:50.360Z,27.21
2023-03-18T06:05:50.390Z,26.71
2023-03-18T06:06:50.465Z,26.68
2023-03-18T06:07:50.508Z,26.61
2023-03-18T06:08:50.549Z,26.58
2023-03-18T06:09:50.583Z,26.72
2023-03-18T06:10:50.616Z,26.18
2023-03-18T06:11:50.681Z,26.38
2023-03-18T06:12:50.717Z,26.29
2023-03-18T06:13:50.744Z,26.54
2023-03-18T06:14:50.775Z,27.00
2023-03-18T06:15:50.797Z,26.27
2023-03-18T06:16:50.936Z,25.89
2023-03-18T06:17:50.928Z,25.80
2023-03-18T06:18:50.950Z,26.22
2023-03-18T06:19:50.969Z,26.04
2023-03-18T06:20:51.038Z,25.76
2023-03-18T06:21:51.055Z,25.85
2023-03-18T06:22:51.099Z,25.95
2023-03-18T06:23:51.167Z,26.07
2023-03-18T06:24:51.171Z,25.85
2023-03-18T06:25:51.257Z,26.07
2023-03-18T06:26:51.279Z,25.88
2023-03-18T06:27:51.280Z,25.53
2023-03-18T06:28:51.311Z,25.30
2023-03-18T06:29:51.374Z,25.66
2023-03-18T06:30:51.448Z,25.41
2023-03-18T06:31:51.421Z,25.39
2023-03-18T06:32:51.481Z,25.10
2023-03-18T06:33:51.520Z,25.12
2023-03-18T06:34:51.582Z,25.00
2023-03-18T06:35:51.559Z,25.24
2023-03-18T06:36:51.626Z,24.83
2023-03-18T06:37:51.633Z,25.28
2023-03-18T06:38:51.697Z,24.79
2023-03-18T06:39:51.718Z,24.86
2023-03-18T06:40:51.734Z,24.81
2023-03-18T06:41:51.780Z,24.68
2023-03-18T06:42:51.824Z,24.87
2023-03-18T06:43:51.843Z,24.39
2023-03-18T06:44:51.928Z,24.59
2023-03-18T06:45:51.967Z,24.40
2023-03-18T06:46:51.942Z,24.49
2023-03-18T06:47:52.006Z,24.44
2023-03-18T06:48:52.030Z,23.97
2023-03-18T06:49:52.045Z,24.31
2023-03-18T06:50:52.110Z,23.92
2023-03-18T06:51:52.153Z,24.04
2023-03-18T06:52:52.220Z,23.69
2023-03-18T06:53:52.242Z,23.64
2023-03-18T06:54:52.259Z,23.45
2023-03-18T06:55:52.280Z,23.42
2023-03-18T06:56:52.333Z,23.26
2023-03-18T06:57:52.378Z,23.33
2023-03-18T06:58:52.410Z,23.33
2023-03-18T06:59:52.420Z,22.92
2023-03-18T07:00:52.540Z,23.22
2023-03-18T07:01:52.570Z,23.11
2023-03-18T07:02:52.570Z,23.23
2023-03-18T07:03:52.580Z,23.11
2023-03-18T07:04:52.714Z,22.70
2023-03-18T07:05:52.670Z,23.08
2023-03-18T07:06:52.692Z,22.66
2023-03-18T07:07:52.714Z,22.75
2023-03-18T07:08:52.770Z,22.73
2023-03-18T07:09:52.815Z,22.56
2023-03-18T07:10:52.953Z,22.55
2023-03-18T07:11:52.861Z,22.35
2023-03-18T07:12:52.881Z,22.71
2023-03-18T07:13:52.915Z,22.34
2023-03-18T07:14:52.945Z,21.99
2023-03-18T07:15:53.026Z,22.37
2023-03-18T07:16:53.030Z,22.05
2023-03-18T07:17:53.073Z,21.91
2023-03-18T07:18:53.117Z,22.01
2023-03-18T07:19:53.461Z,21.88
2023-03-18T07:20:53.191Z,21.70
2023-03-18T07:21:53.218Z,21.89
2023-03-18T07:22:53.271Z,21.61
2023-03-18T07:23:53.297Z,21.44
2023-03-18T07:24:53.304Z,21.43
2023-03-18T07:25:53.366Z,21.37
2023-03-18T07:26:53.400Z,21.35
2023-03-18T07:27:53.397Z,21.54
2023-03-18T07:28:53.452Z,21.63
2023-03-18T07:29:53.461Z,21.29
2023-03-18T07:30:54.366Z,20.95
2023-03-18T07:31:53.505Z,21.01
2023-03-18T07:32:53.572Z,21.29
2023-03-18T07:33:53.585Z,20.92
2023-03-18T07:34:53.607Z,20.70
2023-03-18T07:35:53.664Z,20.69
2023-03-18T07:36:53.675Z,20.76
2023-03-18T07:37:53.731Z,20.76
2023-03-18T07:39:53.773Z,20.72
2023-03-18T07:40:53.762Z,20.66
2023-03-18T07:41:54.000Z,20.40
2023-03-18T07:42:53.876Z,20.57
2023-03-18T07:43:53.899Z,20.43
2023-03-18T07:44:53.943Z,20.31
2023-03-18T07:45:53.957Z,20.24
2023-03-18T07:46:54.051Z,20.02
2023-03-18T07:47:54.016Z,20.17
2023-03-18T07:48:54.021Z,20.06
2023-03-18T07:49:54.056Z,19.94
2023-03-18T07:50:54.081Z,19.84
2023-03-18T07:51:54.107Z,19.86
2023-03-18T07:52:54.175Z,19.62
2023-03-18T07:53:54.197Z,19.48
2023-03-18T07:54:54.224Z,19.68
2023-03-18T07:55:54.330Z,19.70
2023-03-18T07:56:54.548Z,19.27
2023-03-18T07:57:54.321Z,19.38
2023-03-18T07:58:54.344Z,19.43
2023-03-18T08:00:54.380Z,19.46
2023-03-18T08:01:54.401Z,19.04
2023-03-18T08:02:54.454Z,19.15
2023-03-18T08:03:54.484Z,19.14
2023-03-18T08:04:54.530Z,19.02
2023-03-18T08:05:54.522Z,18.76
2023-03-18T08:06:54.553Z,18.74
2023-03-18T08:07:54.608Z,18.71
2023-03-18T08:08:54.584Z,18.57
2023-03-18T08:09:54.668Z,18.65
2023-03-18T08:10:54.697Z,18.82
2023-03-18T08:11:54.717Z,18.55
2023-03-18T08:12:54.741Z,18.37
2023-03-18T08:13:54.758Z,18.25
2023-03-18T08:14:54.793Z,18.21
2023-03-18T08:15:54.964Z,18.31
2023-03-18T08:16:54.874Z,18.37
2023-03-18T08:17:54.917Z,18.20
2023-03-18T08:18:54.924Z,18.09
2023-03-18T08:19:54.936Z,17.98
2023-03-18T08:20:54.971Z,18.13
2023-03-18T08:21:55.000Z,18.01
2023-03-18T08:22:55.046Z,18.17
2023-03-18T08:23:55.040Z,18.11
2023-03-18T08:24:55.070Z,17.98
2023-03-18T08:25:55.099Z,17.75
2023-03-18T08:26:55.214Z,17.57
2023-03-18T08:27:55.163Z,17.78
2023-03-18T08:28:55.210Z,17.58
2023-03-18T08:29:55.239Z,17.34
2023-03-18T08:30:55.248Z,17.44
2023-03-18T08:31:55.300Z,17.41
2023-03-18T08:32:55.355Z,17.16
2023-03-18T08:33:55.357Z,17.28
2023-03-18T08:34:55.370Z,17.20
2023-03-18T08:35:55.462Z,17.14
2023-03-18T08:36:55.408Z,17.27
2023-03-18T08:37:55.495Z,17.23
2023-03-18T08:38:55.474Z,17.13
2023-03-18T08:39:55.483Z,16.91
2023-03-18T08:40:55.545Z,16.99
2023-03-18T08:41:55.527Z,16.91
2023-03-18T08:42:55.581Z,16.91
2023-03-18T08:43:55.614Z,16.65
2023-03-18T08:44:55.584Z,16.83
2023-03-18T08:45:55.680Z,16.46
2023-03-18T08:46:55.663Z,16.56
2023-03-18T08:47:55.662Z,16.52
2023-03-18T08:48:55.694Z,16.51
2023-03-18T08:49:55.757Z,16.45
2023-03-18T08:50:55.744Z,16.43
2023-03-18T08:51:55.768Z,16.61
2023-03-18T08:52:55.809Z,16.21
2023-03-18T08:53:55.841Z,16.34
2023-03-18T08:54:55.827Z,16.46
2023-03-18T08:55:55.847Z,16.38
2023-03-18T08:56:55.906Z,16.47
2023-03-18T08:57:56.179Z,16.41
2023-03-18T08:58:55.901Z,16.48
2023-03-18T08:59:55.932Z,16.19
2023-03-18T09:00:55.990Z,16.12
2023-03-18T09:01:55.991Z,16.12
2023-03-18T09:02:56.001Z,15.90
2023-03-18T09:03:56.066Z,15.69
2023-03-18T09:04:56.075Z,15.92
2023-03-18T09:05:56.123Z,15.87
2023-03-18T09:06:56.123Z,15.93
2023-03-18T09:07:56.167Z,16.05
2023-03-18T09:08:56.148Z,15.67
2023-03-18T09:09:56.311Z,15.83
2023-03-18T09:10:56.208Z,15.69
2023-03-18T09:11:56.241Z,15.54
2023-03-18T09:12:56.255Z,15.58
2023-03-18T09:13:56.306Z,15.62
2023-03-18T09:14:56.306Z,15.71
2023-03-18T09:15:56.311Z,15.50
2023-03-18T09:16:56.464Z,15.18
2023-03-18T09:18:10.336Z,15.09
2023-03-18T09:18:57.375Z,15.11
2023-03-18T09:19:56.350Z,15.11
2023-03-18T09:20:56.350Z,15.17
2023-03-18T09:21:56.351Z,15.19
2023-03-18T09:22:56.331Z,15.18
2023-03-18T09:23:56.341Z,14.94
2023-03-18T09:24:56.353Z,15.11
2023-03-18T09:25:56.318Z,15.03
2023-03-18T09:26:56.318Z,14.75
2023-03-18T09:27:56.290Z,14.70
2023-03-18T09:28:56.307Z,14.68
2023-03-18T09:29:56.278Z,14.77
2023-03-18T09:30:56.321Z,14.67
2023-03-18T09:31:56.375Z,14.73
2023-03-18T09:32:56.248Z,14.70
2023-03-18T09:33:56.324Z,14.74
2023-03-18T09:34:56.255Z,14.67
2023-03-18T09:35:56.321Z,14.60
2023-03-18T09:36:56.238Z,14.38
2023-03-18T09:37:56.229Z,14.42
2023-03-18T09:38:56.212Z,14.62
2023-03-18T09:39:56.191Z,14.58
2023-03-18T09:40:56.224Z,14.16
2023-03-18T09:41:56.209Z,14.26
2023-03-18T09:42:56.231Z,14.11
2023-03-18T09:43:56.263Z,14.04
2023-03-18T09:44:56.370Z,13.78
2023-03-18T09:45:57.425Z,13.86
2023-03-18T09:46:56.408Z,13.93
2023-03-18T09:47:56.332Z,13.96
2023-03-18T09:48:56.347Z,13.84
2023-03-18T09:49:56.362Z,13.82
2023-03-18T09:50:56.396Z,13.72
2023-03-18T09:51:56.387Z,13.67
2023-03-18T09:52:56.431Z,13.76
2023-03-18T09:53:56.452Z,13.76
2023-03-18T09:54:56.493Z,13.64
2023-03-18T09:55:56.506Z,13.80
2023-03-18T09:56:56.521Z,13.70
2023-03-18T09:57:56.559Z,13.82
2023-03-18T09:58:56.564Z,13.77
2023-03-18T09:59:56.776Z,13.59
2023-03-18T10:00:56.676Z,13.58
2023-03-18T10:01:56.672Z,13.50
2023-03-18T10:02:56.643Z,13.54
2023-03-18T10:03:56.754Z,13.45
2023-03-18T10:04:56.699Z,13.53
2023-03-18T10:05:56.706Z,13.56
2023-03-18T10:06:56.720Z,13.58
2023-03-18T10:07:56.782Z,13.39
2023-03-18T10:08:56.744Z,13.48
2023-03-18T10:09:56.802Z,13.31
2023-03-18T10:10:56.795Z,13.33
2023-03-18T10:11:56.983Z,13.31
2023-03-18T10:12:56.861Z,13.11
2023-03-18T10:13:56.847Z,12.99
2023-03-18T10:14:56.854Z,12.92
2023-03-18T10:15:56.973Z,12.78
2023-03-18T10:16:56.888Z,12.80
2023-03-18T10:17:56.942Z,12.75
2023-03-18T10:18:56.938Z,12.82
2023-03-18T10:19:56.958Z,12.76
2023-03-18T10:20:56.947Z,12.75
2023-03-18T10:21:56.960Z,12.82
2023-03-18T10:22:56.966Z,12.76
2023-03-18T10:23:57.016Z,12.52
2023-03-18T10:24:57.027Z,12.12
2023-03-18T10:25:57.041Z,12.29
2023-03-18T10:26:57.066Z,12.23
2023-03-18T10:27:57.087Z,12.11
2023-03-18T10:28:57.080Z,12.02
2023-03-18T10:29:57.114Z,11.93
2023-03-18T10:30:57.172Z,11.92
2023-03-18T10:31:57.142Z,11.73
2023-03-18T10:32:57.199Z,11.64
2023-03-18T10:33:57.185Z,11.79
2023-03-18T10:34:57.177Z,11.41
2023-03-18T10:35:59.244Z,11.51
2023-03-18T10:36:57.208Z,11.36
2023-03-18T10:37:57.273Z,11.28
2023-03-18T10:38:57.254Z,11.54
2023-03-18T10:39:57.261Z,11.44
2023-03-18T10:40:57.259Z,11.50
2023-03-18T10:41:57.291Z,11.65
2023-03-18T10:42:57.317Z,11.38
2023-03-18T10:43:57.304Z,11.15
2023-03-18T10:44:57.326Z,11.37
2023-03-18T10:45:57.390Z,11.18
2023-03-18T10:46:57.487Z,11.27
2023-03-18T10:47:57.375Z,11.15
2023-03-18T10:48:57.438Z,11.16
2023-03-18T10:49:57.366Z,10.98
2023-03-18T10:50:57.400Z,11.21
2023-03-18T10:51:57.518Z,11.12
2023-03-18T10:52:57.409Z,11.28
2023-03-18T10:53:57.429Z,11.00
2023-03-18T10:54:57.432Z,10.99
2023-03-18T10:55:57.652Z,10.79
2023-03-18T10:56:57.459Z,10.87
2023-03-18T10:57:57.453Z,10.92
2023-03-18T10:58:57.520Z,10.84
2023-03-18T10:59:57.494Z,10.93
2023-03-18T11:00:57.539Z,10.93
2023-03-18T11:01:57.782Z,10.86
2023-03-18T11:02:57.614Z,10.98
2023-03-18T11:03:57.558Z,10.75
2023-03-18T11:04:57.565Z,10.62
2023-03-18T11:05:57.574Z,10.63
2023-03-18T11:06:57.572Z,10.53
2023-03-18T11:07:57.596Z,10.61
2023-03-18T11:08:57.615Z,10.48
2023-03-18T11:09:57.580Z,10.56
2023-03-18T11:10:57.633Z,10.52
2023-03-18T11:11:57.612Z,10.69
2023-03-18T11:12:57.693Z,10.86
2023-03-18T11:13:57.664Z,10.72
2023-03-18T11:14:57.662Z,10.81
2023-03-18T11:15:58.405Z,10.96
2023-03-18T11:16:57.674Z,10.73
2023-03-18T11:17:57.689Z,10.44
2023-03-18T11:18:57.705Z,10.58
2023-03-18T11:19:57.684Z,10.81
2023-03-18T11:20:57.716Z,10.48
2023-03-18T11:21:57.719Z,10.77
2023-03-18T11:22:57.764Z,10.85
2023-03-18T11:23:57.758Z,10.36
2023-03-18T11:24:57.768Z,10.08
2023-03-18T11:25:57.766Z,10.04
2023-03-18T11:26:57.795Z,10.37
2023-03-18T11:27:57.851Z,10.43
2023-03-18T11:28:57.802Z,10.24
2023-03-18T11:29:57.799Z,10.18
2023-03-18T11:30:57.858Z,10.14
2023-03-18T11:31:57.837Z,10.17
2023-03-18T11:32:57.852Z,10.22
2023-03-18T11:33:57.870Z,10.33
2023-03-18T11:34:57.868Z,10.08
2023-03-18T11:35:57.930Z,10.24
2023-03-18T11:36:57.873Z,9.95
2023-03-18T11:37:57.873Z,10.21
2023-03-18T11:38:57.938Z,10.20
2023-03-18T11:39:59.230Z,10.13
2023-03-18T11:40:57.930Z,10.14
2023-03-18T11:41:57.906Z,10.04
2023-03-18T11:42:57.953Z,9.96
2023-03-18T11:43:57.942Z,9.91
2023-03-18T11:44:57.937Z,9.76
2023-03-18T11:45:57.952Z,9.64
2023-03-18T11:46:58.021Z,9.66
2023-03-18T11:47:57.978Z,9.68
2023-03-18T11:48:58.021Z,9.60
2023-03-18T11:49:58.001Z,9.89
2023-03-18T11:50:58.001Z,9.87
2023-03-18T11:51:58.010Z,9.77
2023-03-18T11:52:58.018Z,9.91
2023-03-18T11:53:58.055Z,9.90
2023-03-18T11:55:00.374Z,9.96
2023-03-18T11:55:58.047Z,9.75
2023-03-18T11:56:58.048Z,9.38
2023-03-18T11:57:58.001Z,9.57
2023-03-18T11:58:58.020Z,9.76
2023-03-18T11:59:58.018Z,9.68
2023-03-18T12:00:58.001Z,9.52
2023-03-18T12:01:58.019Z,9.42
2023-03-18T12:02:58.014Z,9.20
2023-03-18T12:03:58.007Z,9.39
2023-03-18T12:04:57.963Z,9.35
2023-03-18T12:05:57.989Z,9.47
2023-03-18T12:06:57.954Z,9.58
2023-03-18T12:07:57.947Z,9.61
2023-03-18T12:08:59.700Z,9.54
2023-03-18T12:09:58.215Z,9.56
2023-03-18T12:10:58.198Z,9.62
2023-03-18T12:11:58.193Z,9.66
2023-03-18T12:12:58.197Z,9.72
2023-03-18T12:13:58.188Z,9.47
2023-03-18T12:14:58.214Z,9.41
2023-03-18T12:15:58.205Z,9.21
2023-03-18T12:16:58.270Z,9.05
2023-03-18T12:17:58.239Z,8.97
2023-03-18T12:18:58.233Z,9.07
2023-03-18T12:19:58.247Z,9.14
2023-03-18T12:20:58.299Z,9.14
2023-03-18T12:21:58.246Z,9.28
2023-03-18T12:22:58.263Z,9.43
2023-03-18T12:23:58.250Z,9.35
2023-03-18T12:24:58.313Z,9.45
2023-03-18T12:25:58.302Z,9.36
2023-03-18T12:26:58.307Z,9.11
2023-03-18T12:27:58.331Z,9.04
2023-03-18T12:29:00.232Z,8.81
2023-03-18T12:29:58.324Z,9.16
2023-03-18T12:30:58.329Z,9.16
2023-03-18T12:31:58.307Z,9.07
2023-03-18T12:33:58.276Z,9.10
2023-03-18T12:34:58.316Z,9.04
2023-03-18T12:35:58.293Z,8.68
2023-03-18T12:36:58.254Z,8.77
2023-03-18T12:37:58.248Z,8.84
2023-03-18T12:38:58.256Z,8.77
2023-03-18T12:39:58.221Z,8.82
2023-03-18T12:40:58.260Z,8.70
2023-03-18T12:41:58.222Z,8.79
2023-03-18T12:42:58.205Z,8.83
2023-03-18T12:43:58.228Z,8.76
2023-03-18T12:44:58.191Z,9.04
2023-03-18T12:45:58.249Z,9.20
2023-03-18T12:46:58.217Z,8.79
2023-03-18T12:47:58.180Z,8.69
2023-03-18T12:48:58.200Z,8.62
2023-03-18T12:49:58.189Z,8.46
2023-03-18T12:50:58.158Z,8.54
2023-03-18T12:51:58.176Z,8.72
2023-03-18T12:52:58.162Z,8.81
2023-03-18T12:53:58.162Z,8.86
2023-03-18T12:54:58.140Z,8.45
2023-03-18T12:55:58.139Z,8.43
2023-03-18T12:56:58.108Z,8.42
2023-03-18T12:57:58.154Z,8.32
2023-03-18T12:58:58.114Z,8.38
2023-03-18T12:59:58.102Z,8.46
2023-03-18T13:00:58.194Z,8.50
2023-03-18T13:01:58.161Z,8.43
2023-03-18T13:02:58.088Z,8.29
2023-03-18T13:03:58.077Z,8.82